Time;durP1;ratioP1;P1;durP2;ratioP2;P2;SDS_P1;SDS_P2;PMS_P1;PMS_P2;Temp;Humidity;BMP_temperature;BMP_pressure;BME280_temperature;BME280_humidity;BME280_pressure;Samples;Min_cycle;Max_cycle;Signal;HPM_P1;HPM_P2
2024/01/09 00:01:21;;;;;;;24.75;12.68;;;-4.10;65.70;;;;;;5012793;28;20369;-79
2024/01/09 00:03:49;;;;;;;26.00;13.48;;;-4.10;65.70;;;;;;5021902;28;20208;-79
2024/01/09 00:06:19;;;;;;;25.98;13.10;;;-4.10;65.70;;;;;;5008508;28;20211;-79
2024/01/09 00:08:48;;;;;;;24.40;12.85;;;-4.10;65.60;;;;;;5004837;28;20699;-79
2024/01/09 00:11:17;;;;;;;24.70;13.23;;;-4.10;65.60;;;;;;5011448;28;20702;-79
2024/01/09 00:13:48;;;;;;;25.08;13.98;;;-4.10;65.60;;;;;;5012809;28;20219;-79
2024/01/09 00:16:17;;;;;;;21.35;12.75;;;-4.10;65.60;;;;;;5011550;28;20249;-79
2024/01/09 00:18:53;;;;;;;21.77;12.75;;;-4.10;65.50;;;;;;5011064;28;20242;-79
2024/01/09 00:21:25;;;;;;;23.05;11.77;;;-4.20;65.50;;;;;;5019888;28;20527;-79
2024/01/09 00:23:53;;;;;;;27.17;14.05;;;-4.20;65.50;;;;;;5002737;28;20208;-79
2024/01/09 00:26:22;;;;;;;25.40;11.65;;;-4.20;65.50;;;;;;5009960;28;20200;-79
2024/01/09 00:28:50;;;;;;;20.23;12.02;;;-4.20;65.60;;;;;;5009658;28;20541;-80
2024/01/09 00:31:18;;;;;;;26.70;13.95;;;-4.20;65.60;;;;;;5006816;28;20236;-80
2024/01/09 00:33:46;;;;;;;24.77;12.55;;;-4.10;65.70;;;;;;5006845;28;20211;-79
2024/01/09 00:36:16;;;;;;;24.48;13.05;;;-4.10;65.60;;;;;;5011189;28;20538;-80
2024/01/09 00:38:46;;;;;;;23.08;13.15;;;-4.10;65.60;;;;;;5009235;28;20771;-80
2024/01/09 00:41:14;;;;;;;23.63;11.65;;;-4.10;65.50;;;;;;5003876;28;20267;-80
2024/01/09 00:43:42;;;;;;;20.48;12.20;;;-4.10;65.60;;;;;;5007569;28;20218;-79
2024/01/09 00:46:09;;;;;;;17.65;12.07;;;-4.10;65.60;;;;;;5013087;28;20205;-79
2024/01/09 00:48:38;;;;;;;22.83;13.02;;;-4.10;65.60;;;;;;5005206;28;20489;-78
2024/01/09 00:51:06;;;;;;;20.60;13.57;;;-4.10;65.60;;;;;;5008478;28;20697;-78
2024/01/09 00:53:35;;;;;;;23.85;12.77;;;-4.00;65.50;;;;;;5010683;28;20213;-78
2024/01/09 00:56:06;;;;;;;21.15;12.02;;;-4.00;65.50;;;;;;5006077;28;20214;-78
2024/01/09 00:58:34;;;;;;;22.77;12.55;;;-4.00;65.50;;;;;;5004894;28;20299;-78
2024/01/09 01:01:08;;;;;;;23.55;13.23;;;-4.00;65.40;;;;;;5013288;28;20232;-79
2024/01/09 01:03:37;;;;;;;23.42;12.50;;;-4.00;65.40;;;;;;5025527;28;20249;-79
2024/01/09 01:06:05;;;;;;;19.95;11.88;;;-4.10;65.50;;;;;;5024783;28;20592;-79
2024/01/09 01:08:34;;;;;;;22.58;13.02;;;-4.10;65.50;;;;;;5009058;28;20207;-80
2024/01/09 01:11:03;;;;;;;19.77;12.10;;;-4.00;65.50;;;;;;5004475;28;20220;-80
2024/01/09 01:13:35;;;;;;;22.63;12.00;;;-4.00;65.50;;;;;;5024559;28;20278;-79
2024/01/09 01:16:03;;;;;;;17.30;10.90;;;-4.00;65.40;;;;;;5010465;28;20193;-80
2024/01/09 01:18:31;;;;;;;21.92;11.95;;;-4.00;65.40;;;;;;5027678;28;20226;-79
2024/01/09 01:20:59;;;;;;;24.63;12.55;;;-4.00;65.40;;;;;;5007774;28;20865;-79
2024/01/09 01:23:27;;;;;;;21.75;11.50;;;-4.10;65.40;;;;;;5007615;28;20205;-79
2024/01/09 01:25:55;;;;;;;22.08;10.93;;;-4.10;65.40;;;;;;5020323;28;20772;-78
2024/01/09 01:28:23;;;;;;;20.45;12.10;;;-4.10;65.40;;;;;;4998308;28;20242;-78
2024/01/09 01:30:53;;;;;;;25.55;11.57;;;-4.10;65.50;;;;;;4998898;28;20275;-78
2024/01/09 01:33:21;;;;;;;19.67;11.68;;;-4.00;65.40;;;;;;5013248;28;21593;-78
2024/01/09 01:35:56;;;;;;;19.25;11.35;;;-4.00;65.40;;;;;;5016868;28;20291;-78
2024/01/09 01:38:25;;;;;;;21.70;11.60;;;-4.00;65.40;;;;;;5017477;28;20300;-78
2024/01/09 01:40:55;;;;;;;23.85;12.80;;;-4.00;65.40;;;;;;5011047;28;20216;-77
2024/01/09 01:43:23;;;;;;;27.17;11.80;;;-4.00;65.40;;;;;;5006346;28;20211;-78
2024/01/09 01:45:53;;;;;;;20.85;11.82;;;-4.00;65.30;;;;;;5023255;28;20677;-78
2024/01/09 01:48:21;;;;;;;25.33;11.40;;;-4.00;65.30;;;;;;5004528;28;20219;-78
2024/01/09 01:50:50;;;;;;;24.02;11.95;;;-4.00;65.20;;;;;;5011131;28;20205;-78
2024/01/09 01:53:19;;;;;;;18.33;9.90;;;-4.10;65.20;;;;;;5009161;28;20208;-78
2024/01/09 01:55:47;;;;;;;17.90;10.43;;;-4.20;65.20;;;;;;5006317;28;20217;-78
2024/01/09 01:58:16;;;;;;;23.92;12.20;;;-4.10;65.20;;;;;;5004655;28;20324;-78
2024/01/09 02:00:44;;;;;;;23.05;12.18;;;-4.20;65.20;;;;;;5015365;28;20250;-78
2024/01/09 02:03:14;;;;;;;22.65;11.77;;;-4.20;65.30;;;;;;5006361;28;20614;-78
2024/01/09 02:05:42;;;;;;;26.88;13.73;;;-4.10;65.30;;;;;;5024222;28;20226;-79
2024/01/09 02:08:13;;;;;;;20.48;12.00;;;-4.10;65.30;;;;;;5012086;28;20208;-79
2024/01/09 02:10:41;;;;;;;28.45;14.27;;;-4.10;65.30;;;;;;5015693;28;20202;-79
2024/01/09 02:13:17;;;;;;;25.98;14.38;;;-4.10;65.20;;;;;;5015990;28;20255;-79
2024/01/09 02:15:45;;;;;;;21.55;12.75;;;-4.00;65.30;;;;;;5027059;28;20216;-80
2024/01/09 02:18:18;;;;;;;29.27;15.65;;;-4.00;65.30;;;;;;5012865;28;20218;-79
2024/01/09 02:20:46;;;;;;;22.27;12.05;;;-3.90;65.30;;;;;;5014501;28;20214;-79
2024/01/09 02:23:18;;;;;;;22.73;12.50;;;-3.90;65.30;;;;;;5010437;28;20216;-79
2024/01/09 02:25:47;;;;;;;21.08;11.93;;;-3.90;65.20;;;;;;5010662;28;20964;-79
2024/01/09 02:28:22;;;;;;;24.48;14.35;;;-3.90;65.10;;;;;;5009426;28;20302;-78
2024/01/09 02:30:53;;;;;;;23.15;12.45;;;-3.90;65.00;;;;;;5025371;28;20239;-79
2024/01/09 02:33:22;;;;;;;18.75;11.00;;;-4.00;65.00;;;;;;5015207;28;20697;-79
2024/01/09 02:35:50;;;;;;;21.95;11.80;;;-4.10;65.00;;;;;;5011003;28;20207;-79
2024/01/09 02:38:18;;;;;;;19.42;12.75;;;-4.10;65.10;;;;;;5006456;28;20216;-79
2024/01/09 02:40:46;;;;;;;21.88;11.27;;;-4.10;65.10;;;;;;5017483;28;20290;-79
2024/01/09 02:43:14;;;;;;;19.70;11.68;;;-4.00;65.10;;;;;;5011061;28;20238;-79
2024/01/09 02:45:45;;;;;;;22.00;12.30;;;-4.00;65.00;;;;;;5005949;28;20324;-79
2024/01/09 02:48:14;;;;;;;21.85;11.63;;;-4.10;65.00;;;;;;5024550;28;20212;-79
2024/01/09 02:50:42;;;;;;;18.35;10.77;;;-4.10;65.00;;;;;;5020561;28;20271;-78
2024/01/09 02:53:11;;;;;;;18.15;9.57;;;-4.10;65.00;;;;;;5003924;28;20286;-78
2024/01/09 02:55:39;;;;;;;23.83;11.80;;;-4.10;65.10;;;;;;5008311;28;20227;-78
2024/01/09 02:58:14;;;;;;;29.15;14.25;;;-4.10;65.00;;;;;;5005663;28;20228;-79
2024/01/09 03:00:43;;;;;;;28.63;13.50;;;-4.10;65.00;;;;;;5007338;28;20294;-79
2024/01/09 03:03:13;;;;;;;19.55;11.52;;;-4.10;65.00;;;;;;5008877;28;20240;-79
2024/01/09 03:05:42;;;;;;;23.08;11.35;;;-4.10;65.00;;;;;;5012923;28;20783;-80
2024/01/09 03:08:11;;;;;;;23.25;12.95;;;-4.10;65.10;;;;;;5012064;28;20725;-79
2024/01/09 03:10:43;;;;;;;17.00;10.07;;;-4.10;65.00;;;;;;5013215;28;20206;-79
2024/01/09 03:13:11;;;;;;;20.42;11.38;;;-4.20;64.90;;;;;;5025438;28;20234;-79
2024/01/09 03:15:42;;;;;;;21.63;10.88;;;-4.20;64.90;;;;;;5014828;28;20199;-79
2024/01/09 03:18:10;;;;;;;21.10;10.13;;;-4.20;65.00;;;;;;5015390;28;20215;-79
2024/01/09 03:20:41;;;;;;;21.90;11.75;;;-4.20;65.10;;;;;;5018097;28;20223;-79
2024/01/09 03:23:09;;;;;;;22.55;11.25;;;-4.20;65.00;;;;;;5027527;28;20223;-79
2024/01/09 03:25:39;;;;;;;19.30;11.30;;;-4.20;65.00;;;;;;5014496;28;20212;-79
2024/01/09 03:28:07;;;;;;;22.55;12.10;;;-4.20;65.10;;;;;;5007979;28;20214;-79
2024/01/09 03:30:36;;;;;;;24.38;12.50;;;-4.20;65.10;;;;;;5013218;28;20229;-79
2024/01/09 03:33:05;;;;;;;25.63;13.18;;;-4.20;65.00;;;;;;5011112;28;20223;-80
2024/01/09 03:35:33;;;;;;;18.80;10.85;;;-4.20;65.00;;;;;;5021921;28;20294;-78
2024/01/09 03:38:04;;;;;;;23.35;11.40;;;-4.20;65.00;;;;;;5019683;28;20264;-79
2024/01/09 03:40:32;;;;;;;18.83;11.75;;;-4.20;65.00;;;;;;5009206;28;20224;-79
2024/01/09 03:43:00;;;;;;;23.77;11.07;;;-4.20;64.90;;;;;;5014925;28;20217;-79
2024/01/09 03:45:31;;;;;;;19.67;10.45;;;-4.20;65.00;;;;;;5011609;28;20510;-78
2024/01/09 03:48:00;;;;;;;20.05;10.80;;;-4.20;65.00;;;;;;5030268;28;20218;-79
2024/01/09 03:50:28;;;;;;;23.95;11.40;;;-4.20;65.00;;;;;;5020270;28;20207;-79
2024/01/09 03:52:57;;;;;;;24.52;11.70;;;-4.20;65.10;;;;;;5014453;28;20214;-79
2024/01/09 03:55:30;;;;;;;19.75;10.68;;;-4.10;65.20;;;;;;5023799;28;20210;-79
2024/01/09 03:57:59;;;;;;;24.13;11.50;;;-4.10;65.20;;;;;;5009063;28;20709;-79
2024/01/09 04:00:28;;;;;;;25.27;13.02;;;-4.00;65.20;;;;;;5011668;28;20233;-79
2024/01/09 04:02:58;;;;;;;21.23;11.00;;;-3.90;65.10;;;;;;5028457;28;20528;-79
2024/01/09 04:05:29;;;;;;;19.25;11.45;;;-3.90;65.20;;;;;;5012280;28;20212;-79
2024/01/09 04:08:02;;;;;;;18.02;11.00;;;-3.90;64.90;;;;;;5026234;28;20214;-78
2024/01/09 04:10:33;;;;;;;19.85;11.70;;;-3.90;64.80;;;;;;5007477;28;20282;-79
2024/01/09 04:13:14;;;;;;;18.45;10.18;;;-3.90;64.80;;;;;;5008975;28;20204;-79
2024/01/09 04:15:56;;;;;;;17.63;10.85;;;-3.90;64.90;;;;;;5024727;28;20325;-79
2024/01/09 04:18:24;;;;;;;19.20;11.77;;;-3.90;64.90;;;;;;5007450;28;20205;-80
2024/01/09 04:20:54;;;;;;;19.92;11.30;;;-3.90;64.80;;;;;;5010687;28;20294;-79
2024/01/09 04:23:23;;;;;;;17.45;11.10;;;-3.90;64.80;;;;;;5025279;28;20275;-79
2024/01/09 04:25:59;;;;;;;23.38;12.02;;;-3.90;64.80;;;;;;5003463;28;20328;-79
2024/01/09 04:28:28;;;;;;;21.90;11.02;;;-3.90;64.80;;;;;;5009911;28;20640;-79
2024/01/09 04:30:58;;;;;;;19.83;11.93;;;-3.90;64.80;;;;;;5008928;28;20708;-79
2024/01/09 04:33:29;;;;;;;19.95;11.68;;;-3.90;64.70;;;;;;5014939;28;20201;-79
2024/01/09 04:35:58;;;;;;;16.98;10.35;;;-4.00;64.50;;;;;;5017452;28;20210;-80
2024/01/09 04:38:27;;;;;;;21.58;10.88;;;-4.00;64.50;;;;;;5018378;28;20210;-80
2024/01/09 04:40:58;;;;;;;20.77;10.77;;;-4.00;64.70;;;;;;5015946;28;20216;-79
2024/01/09 04:43:26;;;;;;;21.83;12.15;;;-3.90;64.80;;;;;;5025185;28;20294;-80
2024/01/09 04:46:00;;;;;;;24.95;12.68;;;-3.90;64.70;;;;;;5012720;28;20209;-80
2024/01/09 04:48:28;;;;;;;21.65;11.93;;;-3.90;64.50;;;;;;5007468;28;20259;-78
2024/01/09 04:50:58;;;;;;;22.70;11.30;;;-3.90;64.40;;;;;;5007372;28;20297;-78
2024/01/09 04:53:27;;;;;;;17.92;10.70;;;-3.90;64.40;;;;;;5014222;28;20204;-78
2024/01/09 04:55:58;;;;;;;21.80;11.75;;;-3.90;64.40;;;;;;5007465;28;20212;-76
2024/01/09 04:58:28;;;;;;;26.08;12.07;;;-3.90;64.40;;;;;;5010603;28;20193;-79
2024/01/09 05:01:11;;;;;;;23.80;12.55;;;-3.90;64.30;;;;;;5003205;28;20693;-79
2024/01/09 05:03:46;;;;;;;20.60;11.13;;;-3.90;64.30;;;;;;4994459;28;20222;-79
2024/01/09 05:06:16;;;;;;;23.25;11.82;;;-3.90;64.50;;;;;;4987397;28;20636;-79
2024/01/09 05:08:48;;;;;;;19.45;10.07;;;-3.90;64.40;;;;;;4988805;28;20236;-79
2024/01/09 05:11:18;;;;;;;29.95;13.30;;;-3.90;64.20;;;;;;4991414;28;20224;-79
2024/01/09 05:13:49;;;;;;;23.63;12.10;;;-3.90;64.20;;;;;;5006447;28;20217;-79
2024/01/09 05:16:18;;;;;;;23.70;12.80;;;-3.90;64.30;;;;;;4992226;28;20223;-79
2024/01/09 05:18:47;;;;;;;28.58;14.75;;;-3.90;64.20;;;;;;4993080;28;20316;-80
2024/01/09 05:21:16;;;;;;;25.38;12.77;;;-3.90;64.20;;;;;;4991655;28;20240;-78
2024/01/09 05:23:46;;;;;;;23.77;12.38;;;-3.90;64.10;;;;;;4999463;28;20304;-78
2024/01/09 05:26:20;;;;;;;22.80;12.05;;;-3.90;64.00;;;;;;4990971;28;21018;-80
2024/01/09 05:28:51;;;;;;;23.55;12.20;;;-3.90;64.00;;;;;;4991490;28;20251;-77
2024/01/09 05:31:23;;;;;;;35.00;18.25;;;-4.00;63.90;;;;;;5003076;28;20554;-77
2024/01/09 05:33:53;;;;;;;41.22;16.40;;;-4.00;63.90;;;;;;5007573;28;20211;-78
2024/01/09 05:36:23;;;;;;;26.80;14.05;;;-4.00;63.90;;;;;;5008199;28;20619;-77
2024/01/09 05:38:52;;;;;;;24.45;13.30;;;-4.10;63.80;;;;;;5014163;28;20202;-80
2024/01/09 05:41:21;;;;;;;27.55;15.23;;;-4.00;63.90;;;;;;5016350;28;20292;-80
2024/01/09 05:43:51;;;;;;;23.58;12.75;;;-4.00;63.90;;;;;;5010909;28;20268;-80
2024/01/09 05:46:19;;;;;;;36.33;18.98;;;-4.00;63.90;;;;;;5029988;28;20636;-77
2024/01/09 05:48:59;;;;;;;22.55;13.07;;;-4.00;63.90;;;;;;5016082;28;20205;-79
2024/01/09 05:51:30;;;;;;;19.80;12.55;;;-4.00;63.80;;;;;;5013911;28;20204;-79
2024/01/09 05:53:59;;;;;;;22.98;12.30;;;-4.00;63.80;;;;;;5012472;28;20263;-79
2024/01/09 05:56:33;;;;;;;18.60;11.93;;;-4.00;63.70;;;;;;5009300;28;20635;-79
2024/01/09 05:59:05;;;;;;;36.00;17.83;;;-4.00;63.80;;;;;;5010273;28;20213;-77
2024/01/09 06:01:35;;;;;;;20.55;12.45;;;-4.00;63.70;;;;;;5010536;28;20319;-77
2024/01/09 06:04:04;;;;;;;21.55;11.02;;;-4.10;63.60;;;;;;5003391;28;20241;-77
2024/01/09 06:06:33;;;;;;;19.90;12.38;;;-4.10;63.60;;;;;;5005112;28;20212;-77
2024/01/09 06:09:03;;;;;;;19.73;11.68;;;-4.10;63.60;;;;;;5017289;28;20216;-77
2024/01/09 06:11:33;;;;;;;19.80;11.13;;;-4.10;63.60;;;;;;5008423;28;20627;-77
2024/01/09 06:14:04;;;;;;;22.77;11.23;;;-4.10;63.60;;;;;;5008997;28;20270;-77
2024/01/09 06:16:33;;;;;;;22.52;11.18;;;-4.10;63.50;;;;;;5009453;28;20219;-77
2024/01/09 06:19:04;;;;;;;19.42;11.30;;;-4.10;63.50;;;;;;5004684;28;20212;-77
2024/01/09 06:21:35;;;;;;;23.25;11.00;;;-4.10;63.40;;;;;;5005489;28;20223;-77
2024/01/09 06:24:05;;;;;;;21.45;11.88;;;-4.20;63.40;;;;;;5016323;28;20212;-77
2024/01/09 06:26:34;;;;;;;25.35;13.63;;;-4.20;63.40;;;;;;5003536;28;20595;-77
2024/01/09 06:29:06;;;;;;;21.65;12.57;;;-4.20;63.50;;;;;;5003755;28;20211;-77
2024/01/09 06:31:34;;;;;;;18.77;12.23;;;-4.20;63.50;;;;;;5005801;28;20227;-77
2024/01/09 06:34:03;;;;;;;21.67;12.00;;;-4.20;63.40;;;;;;5004454;28;20306;-77
2024/01/09 06:36:34;;;;;;;21.42;11.80;;;-4.20;63.50;;;;;;5005290;28;20227;-77
2024/01/09 06:39:04;;;;;;;25.85;12.52;;;-4.20;63.50;;;;;;5014631;28;20344;-77
2024/01/09 06:41:35;;;;;;;29.33;14.52;;;-4.10;63.50;;;;;;5005554;28;20239;-77
2024/01/09 06:44:05;;;;;;;25.90;13.15;;;-4.10;63.50;;;;;;5000400;28;20211;-77
2024/01/09 06:46:33;;;;;;;33.35;17.10;;;-4.00;63.50;;;;;;5006816;28;20294;-77
2024/01/09 06:49:04;;;;;;;31.30;16.85;;;-4.00;63.50;;;;;;5007024;28;20286;-77
2024/01/09 06:51:37;;;;;;;30.20;14.65;;;-4.00;63.40;;;;;;5008393;28;20247;-77
2024/01/09 06:54:05;;;;;;;30.85;15.32;;;-3.90;63.30;;;;;;5004366;28;20223;-77
2024/01/09 06:56:34;;;;;;;26.48;14.10;;;-4.00;63.20;;;;;;5009991;28;20207;-77
2024/01/09 06:59:07;;;;;;;24.83;15.80;;;-4.00;63.20;;;;;;5003752;28;20219;-77
2024/01/09 07:01:36;;;;;;;34.78;17.35;;;-4.00;63.30;;;;;;5005585;28;20238;-77
2024/01/09 07:04:06;;;;;;;29.15;15.25;;;-4.00;63.20;;;;;;5005079;28;20233;-78
2024/01/09 07:06:36;;;;;;;29.42;16.70;;;-4.00;63.10;;;;;;5007446;28;20841;-77
2024/01/09 07:09:05;;;;;;;32.15;16.95;;;-4.00;63.20;;;;;;5018986;28;20208;-77
2024/01/09 07:11:34;;;;;;;24.25;14.23;;;-4.10;63.10;;;;;;5004216;28;20209;-77
2024/01/09 07:14:09;;;;;;;29.48;16.60;;;-4.10;63.10;;;;;;5018868;28;20204;-77
2024/01/09 07:16:38;;;;;;;25.73;13.32;;;-4.10;63.10;;;;;;5003375;28;20287;-78
2024/01/09 07:19:07;;;;;;;26.80;13.90;;;-4.10;63.10;;;;;;5004107;28;20701;-77
2024/01/09 07:21:37;;;;;;;30.33;15.32;;;-4.10;63.10;;;;;;5019692;28;20227;-77
2024/01/09 07:24:06;;;;;;;29.73;14.10;;;-4.00;63.20;;;;;;5010396;28;20204;-77
2024/01/09 07:26:39;;;;;;;26.95;15.00;;;-4.10;63.10;;;;;;5020202;28;20214;-77
2024/01/09 07:29:16;;;;;;;29.63;15.25;;;-4.00;63.10;;;;;;5005012;28;20286;-77
2024/01/09 07:31:44;;;;;;;27.00;13.77;;;-4.00;63.00;;;;;;5016835;28;20317;-77
2024/01/09 07:34:14;;;;;;;25.02;13.18;;;-4.00;63.10;;;;;;5007812;28;20916;-77
2024/01/09 07:36:44;;;;;;;29.02;14.32;;;-3.90;63.00;;;;;;5017112;28;20207;-77
2024/01/09 07:39:13;;;;;;;26.20;12.82;;;-3.90;62.90;;;;;;5000469;28;20289;-77
2024/01/09 07:41:45;;;;;;;27.10;13.73;;;-4.00;62.90;;;;;;4999306;28;20228;-77
2024/01/09 07:44:15;;;;;;;24.02;13.70;;;-3.90;62.90;;;;;;5023352;28;20616;-77
2024/01/09 07:46:44;;;;;;;27.20;14.75;;;-3.90;63.00;;;;;;5005368;28;20202;-77
2024/01/09 07:49:16;;;;;;;30.65;14.60;;;-3.90;62.90;;;;;;5002528;28;20223;-76
2024/01/09 07:51:45;;;;;;;26.98;15.27;;;-3.90;62.60;;;;;;5003408;28;20682;-77
2024/01/09 07:54:14;;;;;;;36.17;17.08;;;-3.90;62.80;;;;;;4999859;28;20267;-77
2024/01/09 07:56:43;;;;;;;25.70;14.30;;;-3.80;62.80;;;;;;5020710;28;20223;-78
2024/01/09 07:59:12;;;;;;;24.73;13.20;;;-3.80;62.60;;;;;;5009620;28;20224;-77
2024/01/09 08:01:43;;;;;;;20.25;10.88;;;-3.90;62.50;;;;;;5001589;28;20754;-77
2024/01/09 08:04:15;;;;;;;22.02;12.27;;;-3.80;62.50;;;;;;5006672;28;20240;-77
2024/01/09 08:06:43;;;;;;;20.90;11.68;;;-3.90;62.50;;;;;;5018790;28;20235;-77
2024/01/09 08:09:13;;;;;;;25.02;13.27;;;-3.80;62.60;;;;;;5004885;28;20243;-77
2024/01/09 08:11:41;;;;;;;23.52;11.32;;;-3.80;62.50;;;;;;5004419;28;20269;-77
2024/01/09 08:14:13;;;;;;;22.15;12.32;;;-3.70;62.50;;;;;;5010014;28;20206;-77
2024/01/09 08:16:49;;;;;;;20.58;11.38;;;-3.70;62.40;;;;;;5006008;28;20300;-77
2024/01/09 08:19:18;;;;;;;19.67;11.30;;;-3.70;62.30;;;;;;5004422;28;20206;-77
2024/01/09 08:21:47;;;;;;;22.95;12.50;;;-3.70;62.10;;;;;;5002200;28;20244;-77
2024/01/09 08:24:18;;;;;;;23.30;12.88;;;-3.70;62.20;;;;;;5007734;28;20216;-77
2024/01/09 08:26:48;;;;;;;20.50;11.15;;;-3.70;62.30;;;;;;5005045;28;20295;-77
2024/01/09 08:29:19;;;;;;;23.95;14.90;;;-3.60;62.30;;;;;;5009089;28;20250;-77
2024/01/09 08:31:50;;;;;;;18.48;11.32;;;-3.60;62.30;;;;;;5003368;28;20228;-77
2024/01/09 08:34:19;;;;;;;19.17;11.20;;;-3.50;62.30;;;;;;4998687;28;20672;-77
2024/01/09 08:36:48;;;;;;;22.00;10.88;;;-3.50;62.20;;;;;;5007139;28;20207;-77
2024/01/09 08:39:19;;;;;;;18.08;11.38;;;-3.50;62.20;;;;;;5005237;28;20290;-77
2024/01/09 08:41:47;;;;;;;23.35;11.65;;;-3.40;62.20;;;;;;5000576;28;21022;-77
2024/01/09 08:44:20;;;;;;;23.27;11.55;;;-3.40;62.30;;;;;;5004001;28;20205;-77
2024/01/09 08:46:51;;;;;;;18.83;11.95;;;-3.40;62.10;;;;;;5008195;28;20219;-77
2024/01/09 08:49:20;;;;;;;22.10;12.65;;;-3.30;62.00;;;;;;5004348;28;20199;-77
2024/01/09 08:51:50;;;;;;;21.85;11.00;;;-3.30;62.00;;;;;;5004228;28;20287;-77
2024/01/09 08:54:22;;;;;;;17.42;10.35;;;-3.30;61.90;;;;;;5006248;28;20220;-77
2024/01/09 08:56:51;;;;;;;18.58;10.32;;;-3.30;61.80;;;;;;5020733;28;20259;-77
2024/01/09 08:59:20;;;;;;;18.77;10.73;;;-3.30;61.90;;;;;;5007614;28;20214;-77
2024/01/09 09:01:51;;;;;;;23.40;12.52;;;-3.30;61.80;;;;;;5009070;28;20232;-77
2024/01/09 09:04:19;;;;;;;16.23;9.90;;;-3.20;61.90;;;;;;5005061;28;20219;-77
2024/01/09 09:06:48;;;;;;;18.38;10.30;;;-3.20;61.70;;;;;;5000208;28;20223;-77
2024/01/09 09:09:16;;;;;;;26.10;13.30;;;-3.20;61.70;;;;;;4985180;28;20745;-77
2024/01/09 09:11:46;;;;;;;29.65;12.30;;;-3.10;61.60;;;;;;4984939;28;20215;-77
2024/01/09 09:14:14;;;;;;;22.25;11.70;;;-3.10;61.50;;;;;;4988832;28;20207;-77
2024/01/09 09:16:43;;;;;;;17.38;10.55;;;-3.10;61.40;;;;;;4988618;28;20592;-77
2024/01/09 09:19:14;;;;;;;20.10;10.77;;;-3.00;61.40;;;;;;5004365;28;20227;-77
2024/01/09 09:21:42;;;;;;;20.20;10.55;;;-3.00;61.40;;;;;;5006809;28;20218;-77
2024/01/09 09:24:12;;;;;;;16.23;9.38;;;-2.90;61.50;;;;;;4989716;28;20210;-77
2024/01/09 09:26:41;;;;;;;21.27;10.38;;;-2.90;61.50;;;;;;4988852;28;20209;-77
2024/01/09 09:29:13;;;;;;;16.90;9.45;;;-2.80;61.30;;;;;;4987672;28;20642;-77
2024/01/09 09:31:55;;;;;;;19.48;11.98;;;-2.80;61.10;;;;;;4988481;28;20222;-77
2024/01/09 09:34:26;;;;;;;32.83;16.77;;;-2.80;61.20;;;;;;4986228;28;20198;-78
2024/01/09 09:36:55;;;;;;;22.48;11.38;;;-2.70;61.30;;;;;;4985280;28;20209;-77
2024/01/09 09:39:24;;;;;;;21.95;13.60;;;-2.70;61.10;;;;;;4991599;28;20209;-77
2024/01/09 09:41:57;;;;;;;26.55;15.10;;;-2.70;61.00;;;;;;5002586;28;20234;-77
2024/01/09 09:44:27;;;;;;;21.58;12.38;;;-2.60;60.80;;;;;;4991127;28;20551;-77
2024/01/09 09:46:56;;;;;;;17.38;10.02;;;-2.60;60.80;;;;;;4979845;28;20225;-77
2024/01/09 09:49:29;;;;;;;20.83;11.77;;;-2.60;60.70;;;;;;4997864;28;20230;-77
2024/01/09 09:51:59;;;;;;;20.40;10.85;;;-2.60;60.30;;;;;;5003339;28;20285;-77
2024/01/09 09:54:29;;;;;;;20.98;11.07;;;-2.50;60.30;;;;;;4987294;28;20791;-77
2024/01/09 09:56:58;;;;;;;19.90;11.50;;;-2.50;60.20;;;;;;4981916;28;20198;-77
2024/01/09 09:59:26;;;;;;;19.52;10.45;;;-2.50;60.00;;;;;;4984605;28;20206;-77
2024/01/09 10:01:56;;;;;;;17.60;10.02;;;-2.40;60.00;;;;;;4990089;28;20234;-77
2024/01/09 10:04:30;;;;;;;16.42;9.68;;;-2.40;59.90;;;;;;5001323;28;20209;-77
2024/01/09 10:07:04;;;;;;;16.33;9.45;;;-2.40;59.60;;;;;;4991706;28;20209;-77
2024/01/09 10:09:37;;;;;;;17.55;9.77;;;-2.30;59.40;;;;;;4986581;28;20246;-77
2024/01/09 10:12:05;;;;;;;17.20;9.50;;;-2.30;59.50;;;;;;5002790;28;20203;-77
2024/01/09 10:14:33;;;;;;;20.35;10.45;;;-2.20;59.50;;;;;;4985218;28;20214;-77
2024/01/09 10:17:05;;;;;;;19.83;10.77;;;-2.20;59.40;;;;;;4987966;28;20213;-77
2024/01/09 10:19:38;;;;;;;16.92;9.18;;;-2.10;59.40;;;;;;4993604;28;20699;-78
2024/01/09 10:22:08;;;;;;;23.17;11.00;;;-2.00;59.20;;;;;;4987272;28;20261;-77
2024/01/09 10:24:37;;;;;;;18.80;9.30;;;-2.00;59.20;;;;;;4989793;28;20289;-77
2024/01/09 10:27:09;;;;;;;21.42;11.15;;;-2.00;58.90;;;;;;4987811;28;20294;-77
2024/01/09 10:29:39;;;;;;;19.20;9.05;;;-1.90;58.80;;;;;;5000121;28;20218;-77
2024/01/09 10:32:09;;;;;;;18.95;10.00;;;-1.90;58.60;;;;;;4988071;28;20262;-78
2024/01/09 10:34:41;;;;;;;17.77;9.18;;;-1.90;58.20;;;;;;4989913;28;20210;-77
2024/01/09 10:37:14;;;;;;;15.75;8.98;;;-1.90;58.10;;;;;;4997381;28;20656;-77
2024/01/09 10:39:47;;;;;;;17.88;8.40;;;-1.80;58.30;;;;;;4989113;28;20217;-78
2024/01/09 10:42:17;;;;;;;16.80;9.68;;;-1.80;58.30;;;;;;4987323;28;20224;-77
2024/01/09 10:44:47;;;;;;;14.23;7.80;;;-1.70;58.40;;;;;;4991035;28;20218;-78
2024/01/09 10:47:17;;;;;;;20.58;9.35;;;-1.60;58.00;;;;;;4991775;28;20667;-77
2024/01/09 10:49:49;;;;;;;14.77;7.70;;;-1.60;57.70;;;;;;4985696;28;20557;-77
2024/01/09 10:52:19;;;;;;;19.83;10.15;;;-1.60;57.50;;;;;;4995170;28;20209;-78
2024/01/09 10:54:48;;;;;;;16.88;8.90;;;-1.60;57.50;;;;;;4989360;28;20211;-78
2024/01/09 10:57:18;;;;;;;16.98;9.30;;;-1.50;57.50;;;;;;4986249;28;20265;-78
2024/01/09 10:59:48;;;;;;;16.40;9.18;;;-1.50;57.40;;;;;;4983438;28;20218;-77
2024/01/09 11:02:17;;;;;;;18.15;10.05;;;-1.50;57.40;;;;;;4987794;28;20230;-77
2024/01/09 11:04:45;;;;;;;17.63;8.20;;;-1.40;57.00;;;;;;4990538;28;20685;-77
2024/01/09 11:07:17;;;;;;;23.13;12.20;;;-1.40;56.70;;;;;;5003913;28;20264;-77
2024/01/09 11:09:48;;;;;;;18.67;8.82;;;-1.30;56.70;;;;;;4982213;28;20222;-77
2024/01/09 11:12:19;;;;;;;16.95;9.75;;;-1.30;56.60;;;;;;5002073;28;20218;-77
2024/01/09 11:14:52;;;;;;;14.98;7.72;;;-1.20;56.40;;;;;;4983662;28;20337;-77
2024/01/09 11:17:25;;;;;;;20.88;9.45;;;-1.20;56.40;;;;;;4986348;28;20206;-77
2024/01/09 11:19:54;;;;;;;16.77;9.48;;;-1.10;56.40;;;;;;4988678;28;20210;-77
2024/01/09 11:22:24;;;;;;;20.35;8.90;;;-1.10;56.30;;;;;;4982738;28;20233;-77
2024/01/09 11:24:56;;;;;;;15.00;8.02;;;-1.00;56.20;;;;;;4988473;28;20199;-77
2024/01/09 11:27:39;;;;;;;17.80;8.98;;;-1.00;56.20;;;;;;4999026;28;20221;-78
2024/01/09 11:30:10;;;;;;;18.20;8.32;;;-0.90;55.70;;;;;;4987070;28;20671;-77
2024/01/09 11:32:39;;;;;;;22.38;9.07;;;-0.90;55.50;;;;;;5006206;28;20717;-77
2024/01/09 11:35:12;;;;;;;16.02;8.98;;;-0.90;55.40;;;;;;5003564;28;20218;-78
2024/01/09 11:37:44;;;;;;;16.42;8.60;;;-0.90;55.40;;;;;;5007034;28;20234;-77
2024/01/09 11:40:14;;;;;;;15.55;8.63;;;-0.80;55.40;;;;;;5005986;28;20217;-78
2024/01/09 11:42:45;;;;;;;20.38;10.98;;;-0.80;55.30;;;;;;5004161;28;20223;-77
2024/01/09 11:45:21;;;;;;;20.45;11.70;;;-0.70;55.20;;;;;;5021335;28;20289;-78
2024/01/09 11:47:50;;;;;;;15.65;8.80;;;-0.70;54.80;;;;;;5003174;28;20552;-77
2024/01/09 11:50:21;;;;;;;15.60;8.68;;;-0.70;54.70;;;;;;5006411;28;20213;-78
2024/01/09 11:52:52;;;;;;;20.67;11.88;;;-0.60;54.50;;;;;;5002692;28;20217;-78
2024/01/09 11:55:21;;;;;;;16.77;9.48;;;-0.60;54.50;;;;;;5012355;28;20213;-78
2024/01/09 11:57:50;;;;;;;38.45;20.35;;;-0.60;54.30;;;;;;5005194;28;20217;-78
2024/01/09 12:00:19;;;;;;;23.50;12.15;;;-0.50;54.20;;;;;;5004329;28;20202;-78
2024/01/09 12:02:48;;;;;;;23.73;14.52;;;-0.50;54.00;;;;;;5002380;28;20228;-78
2024/01/09 12:05:16;;;;;;;24.92;13.10;;;-0.50;54.10;;;;;;5006595;28;20718;-77
2024/01/09 12:07:49;;;;;;;21.52;12.32;;;-0.50;53.80;;;;;;5004694;28;20201;-78
2024/01/09 12:10:19;;;;;;;16.98;10.68;;;-0.40;53.70;;;;;;5005989;28;20730;-77
2024/01/09 12:13:05;;;;;;;21.98;13.18;;;-0.40;53.50;;;;;;5002488;28;20284;-77
2024/01/09 12:15:35;;;;;;;16.20;9.60;;;-0.40;53.50;;;;;;5005901;28;20715;-77
2024/01/09 12:18:04;;;;;;;26.13;13.75;;;-0.30;53.60;;;;;;5003897;28;20553;-78
2024/01/09 12:20:32;;;;;;;15.98;9.48;;;-0.30;53.70;;;;;;5001493;28;20210;-77
2024/01/09 12:23:01;;;;;;;18.80;9.50;;;-0.20;53.50;;;;;;5004011;28;20564;-78
2024/01/09 12:25:32;;;;;;;15.98;9.02;;;-0.20;53.50;;;;;;5005416;28;20586;-77
2024/01/09 12:28:02;;;;;;;14.35;8.80;;;-0.10;53.00;;;;;;4999845;28;20870;-77
2024/01/09 12:30:32;;;;;;;21.60;9.60;;;-0.10;52.80;;;;;;5000782;28;20237;-77
2024/01/09 12:33:03;;;;;;;19.98;10.27;;;-0.10;52.80;;;;;;4987424;28;20659;-77
2024/01/09 12:35:31;;;;;;;13.48;8.18;;;-0.10;53.00;;;;;;4984315;28;20198;-77
2024/01/09 12:38:00;;;;;;;16.35;8.80;;;0.00;52.90;;;;;;5001930;28;20219;-77
2024/01/09 12:40:29;;;;;;;16.55;8.38;;;0.00;52.70;;;;;;4985992;28;20241;-77
2024/01/09 12:43:12;;;;;;;17.02;9.13;;;0.00;52.40;;;;;;4984574;28;20198;-77